createdAt,value
2022-09-14T00:01:51.379Z,18.00
2022-09-14T00:03:54.910Z,18.00
2022-09-14T00:05:59.257Z,18.00
2022-09-14T00:08:02.253Z,17.90
2022-09-14T00:10:05.550Z,17.90
2022-09-14T00:12:08.141Z,17.90
2022-09-14T00:14:10.754Z,17.90
2022-09-14T00:16:14.484Z,17.90
2022-09-14T00:18:17.058Z,17.80
2022-09-14T00:20:19.591Z,17.90
2022-09-14T00:22:22.069Z,17.90
2022-09-14T00:24:25.766Z,17.90
2022-09-14T00:26:28.385Z,17.80
2022-09-14T00:28:31.073Z,17.80
2022-09-14T00:30:33.597Z,17.80
2022-09-14T00:32:36.088Z,17.80
2022-09-14T00:34:38.587Z,17.80
2022-09-14T00:36:42.001Z,17.70
2022-09-14T00:38:44.878Z,17.70
2022-09-14T00:40:56.622Z,17.70
2022-09-14T00:42:59.145Z,17.60
2022-09-14T00:45:04.081Z,17.60
2022-09-14T00:47:06.641Z,17.60
2022-09-14T00:49:10.941Z,17.60
2022-09-14T00:51:13.806Z,17.60
2022-09-14T00:53:16.385Z,17.60
2022-09-14T00:55:20.274Z,17.50
2022-09-14T00:57:23.353Z,17.50
2022-09-14T00:59:27.637Z,17.40
2022-09-14T01:01:30.135Z,17.40
2022-09-14T01:03:32.617Z,17.40
2022-09-14T01:05:38.651Z,17.30
2022-09-14T01:08:09.157Z,17.40
2022-09-14T01:10:15.542Z,17.40
2022-09-14T01:12:20.350Z,17.30
2022-09-14T01:14:25.477Z,17.40
2022-09-14T01:16:30.611Z,17.40
2022-09-14T01:18:35.381Z,17.40
2022-09-14T01:20:39.717Z,17.30
2022-09-14T01:22:44.689Z,17.30
2022-09-14T01:24:48.935Z,17.30
2022-09-14T01:27:11.246Z,17.30
2022-09-14T01:29:14.781Z,17.30
2022-09-14T01:31:18.523Z,17.30
2022-09-14T01:33:23.732Z,17.30
2022-09-14T01:35:28.054Z,17.30
2022-09-14T01:37:32.505Z,17.30
2022-09-14T01:39:35.900Z,17.30
2022-09-14T01:41:39.844Z,17.20
2022-09-14T01:43:44.120Z,17.20
2022-09-14T01:45:48.204Z,17.20
2022-09-14T01:47:52.898Z,17.20
2022-09-14T01:49:57.300Z,17.20
2022-09-14T01:52:01.421Z,17.20
2022-09-14T01:54:05.922Z,17.20
2022-09-14T01:56:10.361Z,17.10
2022-09-14T01:58:14.662Z,17.20
2022-09-14T02:02:36.115Z,17.10
2022-09-14T02:04:40.978Z,17.20
2022-09-14T02:06:44.287Z,17.20
2022-09-14T02:08:47.169Z,17.20
2022-09-14T02:10:49.644Z,17.10
2022-09-14T02:12:52.307Z,17.20
2022-09-14T02:14:54.807Z,17.20
2022-09-14T02:16:57.589Z,17.20
2022-09-14T02:19:01.160Z,17.10
2022-09-14T02:21:05.220Z,17.00
2022-09-14T02:23:08.238Z,17.00
2022-09-14T02:25:10.762Z,17.00
2022-09-14T02:27:13.231Z,17.00
2022-09-14T02:29:15.686Z,17.00
2022-09-14T02:33:35.175Z,17.00
2022-09-14T02:35:40.041Z,17.00
2022-09-14T02:37:45.586Z,16.90
2022-09-14T02:39:50.456Z,16.90
2022-09-14T02:41:55.861Z,17.00
2022-09-14T02:44:01.107Z,16.90
2022-09-14T02:46:06.633Z,16.90
2022-09-14T02:48:10.926Z,17.00
2022-09-14T02:50:15.554Z,17.00
2022-09-14T02:52:19.923Z,17.00
2022-09-14T02:54:24.217Z,17.00
2022-09-14T02:56:28.254Z,17.00
2022-09-14T02:58:34.801Z,17.00
2022-09-14T03:00:39.674Z,17.00
2022-09-14T03:02:42.201Z,17.00
2022-09-14T03:04:44.661Z,17.00
2022-09-14T03:06:47.229Z,16.90
2022-09-14T03:08:50.191Z,16.90
2022-09-14T03:10:52.875Z,17.00
2022-09-14T03:12:55.452Z,17.00
2022-09-14T03:14:57.966Z,17.00
2022-09-14T03:17:00.421Z,17.00
2022-09-14T03:19:03.008Z,16.90
2022-09-14T03:21:06.331Z,16.90
2022-09-14T03:23:10.183Z,16.90
2022-09-14T03:25:13.849Z,16.90
2022-09-14T03:27:16.471Z,16.90
2022-09-14T03:29:18.949Z,16.90
2022-09-14T03:31:21.603Z,16.90
2022-09-14T03:33:24.189Z,16.90
2022-09-14T03:35:27.494Z,16.90
2022-09-14T03:37:30.044Z,17.00
2022-09-14T03:39:32.565Z,17.00
2022-09-14T03:41:35.062Z,16.90
2022-09-14T03:43:37.577Z,16.90
2022-09-14T03:45:40.154Z,16.90
2022-09-14T03:47:42.925Z,16.90
2022-09-14T03:49:45.407Z,16.90
2022-09-14T03:51:47.897Z,17.00
2022-09-14T03:53:50.548Z,16.90
2022-09-14T03:55:53.114Z,17.00
2022-09-14T03:57:55.850Z,16.90
2022-09-14T03:59:58.324Z,16.90
2022-09-14T04:02:01.067Z,16.90
2022-09-14T04:04:03.935Z,16.90
2022-09-14T04:06:07.378Z,16.80
2022-09-14T04:08:09.873Z,16.80
2022-09-14T04:10:12.365Z,16.80
2022-09-14T04:12:14.850Z,16.80
2022-09-14T04:14:17.439Z,16.80
2022-09-14T04:16:20.854Z,16.70
2022-09-14T04:18:23.605Z,16.70
2022-09-14T04:20:26.210Z,16.60
2022-09-14T04:22:28.677Z,16.60
2022-09-14T04:26:47.275Z,16.60
2022-09-14T04:28:49.858Z,16.50
2022-09-14T04:30:55.760Z,16.50
2022-09-14T04:32:58.332Z,16.50
2022-09-14T04:35:00.811Z,16.50
2022-09-14T04:37:03.801Z,16.50
2022-09-14T04:39:06.767Z,16.50
2022-09-14T04:41:11.058Z,16.50
2022-09-14T04:43:13.566Z,16.40
2022-09-14T04:45:16.105Z,16.40
2022-09-14T04:47:18.636Z,16.30
2022-09-14T04:49:21.181Z,16.30
2022-09-14T04:51:24.885Z,16.30
2022-09-14T04:53:27.463Z,16.20
2022-09-14T04:55:30.214Z,16.20
2022-09-14T04:57:32.671Z,16.20
2022-09-14T04:59:35.282Z,16.10
2022-09-14T05:01:39.297Z,16.10
2022-09-14T05:03:42.093Z,16.10
2022-09-14T05:05:44.979Z,16.10
2022-09-14T05:07:47.493Z,16.10
2022-09-14T05:09:49.954Z,16.10
2022-09-14T05:11:52.459Z,16.00
2022-09-14T05:13:56.005Z,16.10
2022-09-14T05:16:04.989Z,16.00
2022-09-14T05:18:07.649Z,15.90
2022-09-14T05:20:10.513Z,15.90
2022-09-14T05:22:14.026Z,15.80
2022-09-14T05:24:17.299Z,15.80
2022-09-14T05:26:19.786Z,15.80
2022-09-14T05:28:22.289Z,15.80
2022-09-14T05:30:24.767Z,15.70
2022-09-14T05:32:27.334Z,15.70
2022-09-14T05:34:29.861Z,15.70
2022-09-14T05:36:32.400Z,15.70
2022-09-14T05:38:35.661Z,15.60
2022-09-14T05:40:38.150Z,15.60
2022-09-14T05:42:40.717Z,15.60
2022-09-14T05:47:08.989Z,15.50
2022-09-14T05:49:21.014Z,15.50
2022-09-14T05:51:25.033Z,15.50
2022-09-14T05:53:28.081Z,15.50
2022-09-14T05:55:30.622Z,15.50
2022-09-14T05:57:33.772Z,15.40
2022-09-14T05:59:39.871Z,15.40
2022-09-14T06:01:42.994Z,15.40
2022-09-14T06:03:48.385Z,15.40
2022-09-14T06:05:53.561Z,15.40
2022-09-14T06:07:57.567Z,15.40
2022-09-14T06:10:01.160Z,15.40
2022-09-14T06:12:05.129Z,15.50
2022-09-14T06:14:08.681Z,15.40
2022-09-14T06:16:13.502Z,15.50
2022-09-14T06:18:16.317Z,15.40
2022-09-14T06:20:19.131Z,15.40
2022-09-14T06:22:22.584Z,15.30
2022-09-14T06:24:25.565Z,15.40
2022-09-14T06:26:28.493Z,15.40
2022-09-14T06:28:32.174Z,15.40
2022-09-14T06:32:51.462Z,15.40
2022-09-14T06:34:54.344Z,15.30
2022-09-14T06:36:57.080Z,15.40
2022-09-14T06:39:03.449Z,15.40
2022-09-14T06:41:07.533Z,15.30
2022-09-14T06:43:10.266Z,15.30
2022-09-14T06:45:12.764Z,15.30
2022-09-14T06:47:15.273Z,15.30
2022-09-14T06:49:19.558Z,15.30
2022-09-14T06:51:23.157Z,15.30
2022-09-14T06:53:25.809Z,15.30
2022-09-14T06:55:29.397Z,15.30
2022-09-14T06:57:31.862Z,15.30
2022-09-14T06:59:34.458Z,15.30
2022-09-14T07:01:36.965Z,15.30
2022-09-14T07:03:39.668Z,15.30
2022-09-14T07:05:42.148Z,15.30
2022-09-14T07:07:44.690Z,15.20
2022-09-14T07:09:47.276Z,15.20
2022-09-14T07:11:49.844Z,15.20
2022-09-14T07:13:54.067Z,15.10
2022-09-14T07:15:56.747Z,15.10
2022-09-14T07:17:59.213Z,15.10
2022-09-14T07:20:02.142Z,15.10
2022-09-14T07:22:04.662Z,15.10
2022-09-14T07:24:07.245Z,15.00
2022-09-14T07:26:31.617Z,15.00
2022-09-14T07:28:35.721Z,14.90
2022-09-14T07:30:38.595Z,14.90
2022-09-14T07:32:41.074Z,14.90
2022-09-14T07:34:43.617Z,14.90
2022-09-14T07:36:46.390Z,14.80
2022-09-14T07:39:00.973Z,14.80
2022-09-14T07:40:55.894Z,14.80
2022-09-14T07:42:58.393Z,14.70
2022-09-14T07:45:00.947Z,14.60
2022-09-14T07:49:21.534Z,14.70
2022-09-14T07:51:24.998Z,14.70
2022-09-14T07:53:27.487Z,14.70
2022-09-14T07:55:30.061Z,14.70
2022-09-14T07:57:54.619Z,14.60
2022-09-14T07:59:37.618Z,14.60
2022-09-14T08:01:42.861Z,14.70
2022-09-14T08:03:46.162Z,14.70
2022-09-14T08:05:49.067Z,14.60
2022-09-14T08:07:54.151Z,14.60
2022-09-14T08:09:57.582Z,14.60
2022-09-14T08:12:00.381Z,14.60
2022-09-14T08:14:04.082Z,14.50
2022-09-14T08:16:07.489Z,14.50
2022-09-14T08:18:10.569Z,14.50
2022-09-14T08:20:13.352Z,14.50
2022-09-14T08:22:15.898Z,14.50
2022-09-14T08:24:19.235Z,14.50
2022-09-14T08:26:22.841Z,14.50
2022-09-14T08:28:25.374Z,14.50
2022-09-14T08:30:27.974Z,14.50
2022-09-14T08:32:30.571Z,14.50
2022-09-14T08:34:33.694Z,14.40
2022-09-14T08:36:37.229Z,14.50
2022-09-14T08:38:39.752Z,14.50
2022-09-14T08:40:45.606Z,14.40
2022-09-14T08:42:48.821Z,14.50
2022-09-14T08:44:53.299Z,14.50
2022-09-14T08:46:58.404Z,14.40
2022-09-14T08:49:01.408Z,14.40
2022-09-14T08:51:04.860Z,14.40
2022-09-14T08:53:08.137Z,14.40
2022-09-14T08:55:17.110Z,14.40
2022-09-14T08:57:21.470Z,14.40
2022-09-14T08:59:31.448Z,14.40
2022-09-14T09:01:36.626Z,14.30
2022-09-14T09:04:01.798Z,14.30
2022-09-14T09:06:09.467Z,14.30
2022-09-14T09:08:15.758Z,14.30
2022-09-14T09:10:18.855Z,14.30
2022-09-14T09:12:23.242Z,14.30
2022-09-14T09:14:27.780Z,14.30
2022-09-14T09:16:30.874Z,14.40
2022-09-14T09:18:35.731Z,14.30
2022-09-14T09:20:40.070Z,14.30
2022-09-14T09:22:43.506Z,14.30
2022-09-14T09:24:47.802Z,14.20
2022-09-14T09:26:50.326Z,14.20
2022-09-14T09:28:53.653Z,14.10
2022-09-14T09:30:57.994Z,14.10
2022-09-14T09:33:02.257Z,14.00
2022-09-14T09:35:07.184Z,14.00
2022-09-14T09:37:13.729Z,14.10
2022-09-14T09:39:16.851Z,14.00
2022-09-14T09:41:21.366Z,14.10
2022-09-14T09:43:47.984Z,14.10
2022-09-14T09:45:51.861Z,14.10
2022-09-14T09:47:54.366Z,14.10
2022-09-14T09:50:00.837Z,14.10
2022-09-14T09:52:08.386Z,14.20
2022-09-14T09:54:19.140Z,14.10
2022-09-14T09:56:23.249Z,14.10
2022-09-14T09:58:30.805Z,14.20
2022-09-14T10:00:33.592Z,14.10
2022-09-14T10:02:36.225Z,14.10
2022-09-14T10:04:39.135Z,14.10
2022-09-14T10:08:58.014Z,14.20
2022-09-14T10:11:01.411Z,14.20
2022-09-14T10:13:04.893Z,14.20
2022-09-14T10:17:26.955Z,14.30
2022-09-14T10:19:29.992Z,14.40
2022-09-14T10:21:32.501Z,14.30
2022-09-14T10:23:36.217Z,14.30
2022-09-14T10:25:38.793Z,14.20
2022-09-14T10:27:42.492Z,14.30
2022-09-14T10:29:47.093Z,14.30
2022-09-14T10:31:50.509Z,14.30
2022-09-14T10:33:55.341Z,14.30
2022-09-14T10:35:59.823Z,14.20
2022-09-14T10:38:06.470Z,14.10
2022-09-14T10:40:15.749Z,14.10
2022-09-14T10:42:20.183Z,14.10
2022-09-14T10:44:32.463Z,14.20
2022-09-14T10:46:36.943Z,14.20
2022-09-14T10:48:49.644Z,14.20
2022-09-14T10:51:00.333Z,14.20
2022-09-14T10:53:06.389Z,14.10
2022-09-14T10:55:15.306Z,14.10
2022-09-14T10:57:19.913Z,14.10
2022-09-14T10:59:27.166Z,14.10
2022-09-14T11:01:33.002Z,14.10
2022-09-14T11:03:44.047Z,14.00
2022-09-14T11:05:46.638Z,14.00
2022-09-14T11:07:54.068Z,13.90
2022-09-14T11:09:58.407Z,13.80
2022-09-14T11:12:06.261Z,13.90
2022-09-14T11:14:16.262Z,14.00
2022-09-14T11:16:23.166Z,14.00
2022-09-14T11:18:27.530Z,14.00
2022-09-14T11:20:32.963Z,14.00
2022-09-14T11:22:37.591Z,14.00
2022-09-14T11:24:42.270Z,14.10
2022-09-14T11:26:46.758Z,14.10
2022-09-14T11:28:51.209Z,14.10
2022-09-14T11:30:55.630Z,14.10
2022-09-14T11:33:00.073Z,14.10
2022-09-14T11:35:04.968Z,14.10
2022-09-14T11:37:09.382Z,14.10
2022-09-14T11:39:13.759Z,14.20
2022-09-14T11:41:19.673Z,14.20
2022-09-14T11:43:24.083Z,14.10
2022-09-14T11:45:28.612Z,14.10
2022-09-14T11:47:33.534Z,14.10
2022-09-14T11:49:39.245Z,14.10
2022-09-14T11:51:43.737Z,14.00
2022-09-14T11:53:46.714Z,13.90
2022-09-14T11:55:50.366Z,13.90
2022-09-14T11:57:53.311Z,13.80
2022-09-14T11:59:56.537Z,13.90
2022-09-14T12:02:00.858Z,13.90
2022-09-14T12:04:14.288Z,14.00
2022-09-14T12:06:44.868Z,14.10
2022-09-14T12:08:47.942Z,14.10
2022-09-14T12:11:00.133Z,14.20
2022-09-14T12:13:19.146Z,14.10
2022-09-14T12:15:23.054Z,14.10
2022-09-14T12:17:39.245Z,14.10
2022-09-14T12:19:30.924Z,14.20
2022-09-14T12:21:33.450Z,14.30
2022-09-14T12:23:46.427Z,14.40
2022-09-14T12:25:56.917Z,14.30
2022-09-14T12:27:59.501Z,14.30
2022-09-14T12:30:02.251Z,14.30
2022-09-14T12:32:26.689Z,14.30
2022-09-14T12:34:31.353Z,14.30
2022-09-14T12:36:52.110Z,14.30
2022-09-14T12:39:09.007Z,14.40
2022-09-14T12:41:29.182Z,14.50
2022-09-14T12:43:51.170Z,14.50
2022-09-14T12:45:57.661Z,14.50
2022-09-14T12:48:00.203Z,14.50
2022-09-14T12:50:05.927Z,14.60
2022-09-14T12:52:25.904Z,14.60
2022-09-14T12:56:51.733Z,14.60
2022-09-14T12:58:59.253Z,14.60
2022-09-14T13:01:05.406Z,14.60
2022-09-14T13:05:45.040Z,14.70
2022-09-14T13:07:47.818Z,14.70
2022-09-14T13:09:51.309Z,14.70
2022-09-14T13:11:55.995Z,14.80
2022-09-14T13:13:59.429Z,14.80
2022-09-14T13:16:03.268Z,14.80
2022-09-14T13:18:06.956Z,14.80
2022-09-14T13:20:18.355Z,14.80
2022-09-14T13:22:22.313Z,14.80
2022-09-14T13:24:30.501Z,14.80
2022-09-14T13:26:33.594Z,14.80
2022-09-14T13:28:36.122Z,14.80
2022-09-14T13:30:38.836Z,14.90
2022-09-14T13:34:57.133Z,14.90
2022-09-14T13:36:59.596Z,14.90
2022-09-14T13:39:03.682Z,15.00
2022-09-14T13:41:07.942Z,14.90
2022-09-14T13:43:10.620Z,14.90
2022-09-14T13:45:13.418Z,14.90
2022-09-14T13:47:16.768Z,14.90
2022-09-14T13:51:35.210Z,15.00
2022-09-14T13:53:39.727Z,15.00
2022-09-14T13:55:43.910Z,15.00
2022-09-14T13:58:06.047Z,15.00
2022-09-14T14:00:19.889Z,15.00
2022-09-14T14:02:22.458Z,15.00
2022-09-14T14:04:30.799Z,15.00
2022-09-14T14:06:34.673Z,15.10
2022-09-14T14:08:38.191Z,15.00
2022-09-14T14:10:43.058Z,15.00
2022-09-14T14:12:48.917Z,15.00
2022-09-14T14:17:23.073Z,14.90
2022-09-14T14:19:29.136Z,14.90
2022-09-14T14:21:32.214Z,14.90
2022-09-14T14:23:35.165Z,14.90
2022-09-14T14:25:43.372Z,15.00
2022-09-14T14:27:44.073Z,15.10
2022-09-14T14:29:46.598Z,15.10
2022-09-14T14:31:49.398Z,15.10
2022-09-14T14:33:52.790Z,15.00
2022-09-14T14:35:56.197Z,14.90
2022-09-14T14:37:58.709Z,14.80
2022-09-14T14:40:01.515Z,14.90
2022-09-14T14:42:04.954Z,14.90
2022-09-14T14:44:10.193Z,15.00
2022-09-14T14:46:13.252Z,15.00
2022-09-14T14:48:17.726Z,14.90
2022-09-14T14:50:21.466Z,14.90
2022-09-14T14:52:23.946Z,14.90
2022-09-14T14:54:27.539Z,14.80
2022-09-14T14:56:30.557Z,14.80
2022-09-14T14:58:36.359Z,14.80
2022-09-14T15:00:38.263Z,14.70
2022-09-14T15:02:40.809Z,14.70
2022-09-14T15:04:43.438Z,14.70
2022-09-14T15:06:46.138Z,14.80
2022-09-14T15:08:50.947Z,14.90
2022-09-14T15:10:56.602Z,15.00
2022-09-14T15:13:00.041Z,15.00
2022-09-14T15:15:03.089Z,15.10
2022-09-14T15:17:05.925Z,15.10
2022-09-14T15:19:09.645Z,15.00
2022-09-14T15:21:12.133Z,15.00
2022-09-14T15:23:14.612Z,15.00
2022-09-14T15:25:17.678Z,15.00
2022-09-14T15:27:20.751Z,15.00
2022-09-14T15:29:23.422Z,15.00
2022-09-14T15:31:25.993Z,14.90
2022-09-14T15:33:29.123Z,14.80
2022-09-14T15:35:34.313Z,14.90
2022-09-14T15:37:36.794Z,14.90
2022-09-14T15:39:45.190Z,14.80
2022-09-14T15:41:48.624Z,14.90
2022-09-14T15:43:51.149Z,14.90
2022-09-14T15:45:53.772Z,14.90
2022-09-14T15:47:56.296Z,14.90
2022-09-14T15:49:58.869Z,15.00
2022-09-14T15:52:01.782Z,15.00
2022-09-14T15:54:04.686Z,15.10
2022-09-14T15:56:10.210Z,15.10
2022-09-14T15:58:13.445Z,15.20
2022-09-14T16:00:16.098Z,15.20
2022-09-14T16:04:36.281Z,15.40
2022-09-14T16:06:38.750Z,15.40
2022-09-14T16:08:41.393Z,15.40
2022-09-14T16:10:44.177Z,15.40
2022-09-14T16:12:47.045Z,15.40
2022-09-14T16:14:49.961Z,15.40
2022-09-14T16:16:52.516Z,15.30
2022-09-14T16:18:56.713Z,15.20
2022-09-14T16:21:04.700Z,15.20
2022-09-14T16:23:07.385Z,15.20
2022-09-14T16:25:10.083Z,15.20
2022-09-14T16:27:12.546Z,15.10
2022-09-14T16:29:16.258Z,15.10
2022-09-14T16:31:19.761Z,15.10
2022-09-14T16:33:22.343Z,15.20
2022-09-14T16:35:24.841Z,15.20
2022-09-14T16:37:27.344Z,15.20
2022-09-14T16:39:31.517Z,15.30
2022-09-14T16:41:35.375Z,15.30
2022-09-14T16:43:38.353Z,15.20
2022-09-14T16:45:42.001Z,15.20
2022-09-14T16:47:45.234Z,15.20
2022-09-14T16:49:47.985Z,15.00
2022-09-14T16:51:50.846Z,15.10
2022-09-14T16:53:54.880Z,15.10
2022-09-14T16:56:01.844Z,15.00
2022-09-14T16:58:04.617Z,14.90
2022-09-14T17:00:09.731Z,15.00
2022-09-14T17:02:12.524Z,15.00
2022-09-14T17:04:16.834Z,15.00
2022-09-14T17:06:20.620Z,15.00
2022-09-14T17:08:23.407Z,15.00
2022-09-14T17:10:26.412Z,15.00
2022-09-14T17:12:29.314Z,15.00
2022-09-14T17:14:33.247Z,14.90
2022-09-14T17:16:36.018Z,14.90
2022-09-14T17:18:39.756Z,14.80
2022-09-14T17:22:59.147Z,14.90
2022-09-14T17:25:01.839Z,14.90
2022-09-14T17:27:05.086Z,15.00
2022-09-14T17:31:25.473Z,14.90
2022-09-14T17:33:29.062Z,14.80
2022-09-14T17:35:32.057Z,14.90
2022-09-14T17:37:34.869Z,14.90
2022-09-14T17:39:37.954Z,14.90
2022-09-14T17:41:42.354Z,14.80
2022-09-14T17:43:47.098Z,14.80
2022-09-14T17:45:53.611Z,14.90
2022-09-14T17:47:56.671Z,14.90
2022-09-14T17:49:59.812Z,14.90
2022-09-14T17:52:02.855Z,14.90
2022-09-14T17:54:06.193Z,14.80
2022-09-14T17:58:24.939Z,14.90
2022-09-14T18:00:28.018Z,14.90
2022-09-14T18:02:30.739Z,14.80
2022-09-14T18:04:33.785Z,14.70
2022-09-14T18:06:37.989Z,14.80
2022-09-14T18:08:41.085Z,14.90
2022-09-14T18:10:44.286Z,14.80
2022-09-14T18:12:47.436Z,14.80
2022-09-14T18:14:50.394Z,14.80
2022-09-14T18:16:53.364Z,14.80
2022-09-14T18:18:57.139Z,14.80
2022-09-14T18:21:00.079Z,14.80
2022-09-14T18:23:02.758Z,14.90
2022-09-14T18:25:06.756Z,14.80
2022-09-14T18:27:09.853Z,14.80
2022-09-14T18:29:14.611Z,14.80
2022-09-14T18:31:18.589Z,14.70
2022-09-14T18:33:21.483Z,14.70
2022-09-14T18:35:24.686Z,14.70
2022-09-14T18:37:27.745Z,14.70
2022-09-14T18:39:30.533Z,14.70
2022-09-14T18:41:33.760Z,14.70
2022-09-14T18:43:36.967Z,14.70
2022-09-14T18:45:40.499Z,14.70
2022-09-14T18:47:43.746Z,14.80
2022-09-14T18:49:46.757Z,14.70
2022-09-14T18:51:49.897Z,14.70
2022-09-14T18:53:56.754Z,14.70
2022-09-14T18:56:01.686Z,14.70
2022-09-14T18:58:04.682Z,14.70
2022-09-14T19:00:11.541Z,14.70
2022-09-14T19:02:15.129Z,14.70
2022-09-14T19:04:18.163Z,14.70
2022-09-14T19:06:20.726Z,14.60
2022-09-14T19:08:23.884Z,14.70
2022-09-14T19:10:26.686Z,14.70
2022-09-14T19:12:29.595Z,14.70
2022-09-14T19:14:32.394Z,14.70
2022-09-14T19:16:35.202Z,14.70
2022-09-14T19:18:37.934Z,14.70
2022-09-14T19:21:04.860Z,14.70
2022-09-14T19:22:45.596Z,14.70
2022-09-14T19:24:48.384Z,14.70
2022-09-14T19:26:51.880Z,14.60
2022-09-14T19:28:54.753Z,14.70
2022-09-14T19:30:57.496Z,14.60
2022-09-14T19:33:00.477Z,14.60
2022-09-14T19:35:03.693Z,14.60
2022-09-14T19:37:07.441Z,14.60
2022-09-14T19:39:10.518Z,14.60
2022-09-14T19:41:13.307Z,14.60
2022-09-14T19:43:16.756Z,14.60
2022-09-14T19:47:39.575Z,14.60
2022-09-14T19:49:42.353Z,14.60
2022-09-14T19:51:46.605Z,14.60
2022-09-14T19:53:50.680Z,14.60
2022-09-14T19:55:53.612Z,14.60
2022-09-14T19:57:56.787Z,14.50
2022-09-14T19:59:59.779Z,14.50
2022-09-14T20:02:02.742Z,14.50
2022-09-14T20:04:06.979Z,14.60
2022-09-14T20:06:11.577Z,14.40
2022-09-14T20:08:14.118Z,14.40
2022-09-14T20:10:17.817Z,14.40
2022-09-14T20:12:21.374Z,14.40
2022-09-14T20:14:25.421Z,14.40
2022-09-14T20:16:29.973Z,14.30
2022-09-14T20:18:33.709Z,14.40
2022-09-14T20:20:44.566Z,14.40
2022-09-14T20:22:50.106Z,14.40
2022-09-14T20:25:46.442Z,14.40
2022-09-14T20:30:12.137Z,14.30
2022-09-14T20:32:20.410Z,14.30
2022-09-14T20:34:24.525Z,14.30
2022-09-14T20:36:30.584Z,14.30
2022-09-14T20:38:33.640Z,14.30
2022-09-14T20:40:36.530Z,14.20
2022-09-14T20:42:40.131Z,14.10
2022-09-14T20:44:43.616Z,14.20
2022-09-14T20:46:48.009Z,14.10
2022-09-14T20:48:51.857Z,14.10
2022-09-14T20:50:55.158Z,14.20
2022-09-14T20:53:07.020Z,14.20
2022-09-14T20:55:20.624Z,14.10
2022-09-14T20:57:40.258Z,14.20
2022-09-14T20:59:53.139Z,14.10
2022-09-14T21:02:20.237Z,14.10
2022-09-14T21:04:43.110Z,14.00
2022-09-14T21:07:03.461Z,14.00
2022-09-14T21:09:30.934Z,14.00
2022-09-14T21:11:56.686Z,14.00
2022-09-14T21:16:38.420Z,14.00
2022-09-14T21:19:04.980Z,14.00
2022-09-14T21:21:33.058Z,13.90
2022-09-14T21:23:44.789Z,13.90
2022-09-14T21:26:06.246Z,13.90
2022-09-14T21:28:26.274Z,13.80
2022-09-14T21:30:50.362Z,13.70
2022-09-14T21:35:15.932Z,13.50
2022-09-14T21:37:34.139Z,13.40
2022-09-14T21:39:52.691Z,13.40
2022-09-14T21:42:14.339Z,13.40
2022-09-14T21:44:31.355Z,13.40
2022-09-14T21:46:56.975Z,13.40
2022-09-14T21:51:26.600Z,13.30
2022-09-14T21:53:30.163Z,13.40
2022-09-14T21:55:34.986Z,13.30
2022-09-14T21:57:38.059Z,13.30
2022-09-14T21:59:41.230Z,13.20
2022-09-14T22:01:44.988Z,13.10
2022-09-14T22:03:48.510Z,13.10
2022-09-14T22:05:57.812Z,13.10
2022-09-14T22:08:00.322Z,13.10
2022-09-14T22:10:03.123Z,13.10
2022-09-14T22:12:06.014Z,13.10
2022-09-14T22:14:10.323Z,13.10
2022-09-14T22:16:13.499Z,13.20
2022-09-14T22:18:16.054Z,13.10
2022-09-14T22:20:18.574Z,13.10
2022-09-14T22:22:21.405Z,13.20
2022-09-14T22:24:25.609Z,13.20
2022-09-14T22:26:28.867Z,13.50
2022-09-14T22:28:32.225Z,13.10
2022-09-14T22:30:35.088Z,13.20
2022-09-14T22:32:37.669Z,13.30
2022-09-14T22:34:40.818Z,13.30
2022-09-14T22:36:43.690Z,13.20
2022-09-14T22:38:46.383Z,13.20
2022-09-14T22:40:54.408Z,13.30
2022-09-14T22:42:56.940Z,13.30
2022-09-14T22:44:59.626Z,13.40
2022-09-14T22:47:02.091Z,13.30
2022-09-14T22:49:04.593Z,13.40
2022-09-14T22:51:09.594Z,13.40
2022-09-14T22:53:12.099Z,13.40
2022-09-14T22:55:14.769Z,13.50
2022-09-14T22:57:17.669Z,13.50
2022-09-14T22:59:20.177Z,13.50
2022-09-14T23:01:24.314Z,13.40
2022-09-14T23:03:26.813Z,13.50
2022-09-14T23:07:44.954Z,13.50
2022-09-14T23:09:48.009Z,13.50
2022-09-14T23:11:50.531Z,13.50
2022-09-14T23:13:53.510Z,13.50
2022-09-14T23:15:56.357Z,13.50
2022-09-14T23:17:58.881Z,13.50
2022-09-14T23:20:01.917Z,13.50
2022-09-14T23:22:04.617Z,13.60
2022-09-14T23:24:07.241Z,13.60
2022-09-14T23:26:11.353Z,13.50
2022-09-14T23:28:13.859Z,13.50
2022-09-14T23:30:16.636Z,13.40
2022-09-14T23:32:19.446Z,13.50
2022-09-14T23:34:21.949Z,13.40
2022-09-14T23:36:24.908Z,13.40
2022-09-14T23:38:27.426Z,13.40
2022-09-14T23:40:30.138Z,13.40
2022-09-14T23:42:32.633Z,13.50
2022-09-14T23:44:35.321Z,13.50
2022-09-14T23:48:53.994Z,13.40
2022-09-14T23:50:56.994Z,13.40
2022-09-14T23:52:59.488Z,13.40
2022-09-14T23:55:02.028Z,13.30
2022-09-14T23:57:04.515Z,13.30
2022-09-14T23:59:09.218Z,13.30
